createdAt,value
2022-11-20T00:00:17.415Z,2.67
2022-11-20T00:01:25.465Z,3.50
2022-11-20T00:02:27.519Z,3.80
2022-11-20T00:03:29.316Z,2.92
2022-11-20T00:04:31.222Z,4.30
2022-11-20T00:05:34.109Z,3.47
2022-11-20T00:06:36.195Z,2.72
2022-11-20T00:07:38.018Z,3.13
2022-11-20T00:08:39.804Z,2.67
2022-11-20T00:09:41.691Z,3.20
2022-11-20T00:10:43.449Z,2.60
2022-11-20T00:11:45.265Z,3.92
2022-11-20T00:12:47.155Z,2.77
2022-11-20T00:13:51.169Z,2.90
2022-11-20T00:14:53.138Z,2.97
2022-11-20T00:15:59.477Z,2.80
2022-11-20T00:17:01.257Z,2.00
2022-11-20T00:18:03.469Z,2.30
2022-11-20T00:19:05.293Z,3.10
2022-11-20T00:20:07.434Z,2.58
2022-11-20T00:21:13.216Z,2.38
2022-11-20T00:22:15.378Z,2.92
2022-11-20T00:23:17.195Z,3.00
2022-11-20T00:24:18.938Z,2.47
2022-11-20T00:25:20.841Z,2.75
2022-11-20T00:26:25.097Z,2.70
2022-11-20T00:27:26.872Z,4.00
2022-11-20T00:28:28.743Z,3.00
2022-11-20T00:29:30.503Z,2.63
2022-11-20T00:30:32.325Z,2.72
2022-11-20T00:31:36.069Z,2.50
2022-11-20T00:32:37.818Z,4.65
2022-11-20T00:33:39.850Z,2.70
2022-11-20T00:34:41.634Z,2.30
2022-11-20T00:35:43.420Z,3.33
2022-11-20T00:36:45.511Z,2.50
2022-11-20T00:37:47.375Z,3.15
2022-11-20T00:38:53.456Z,2.97
2022-11-20T00:39:55.225Z,3.95
2022-11-20T00:41:01.957Z,3.42
2022-11-20T00:42:03.859Z,2.72
2022-11-20T00:43:05.714Z,2.88
2022-11-20T00:44:07.457Z,2.03
2022-11-20T00:45:09.400Z,3.10
2022-11-20T00:46:14.786Z,2.85
2022-11-20T00:47:16.647Z,1.95
2022-11-20T00:48:18.399Z,2.63
2022-11-20T00:49:20.481Z,2.60
2022-11-20T00:50:22.504Z,2.15
2022-11-20T00:51:26.415Z,3.35
2022-11-20T00:52:28.208Z,2.83
2022-11-20T00:53:29.936Z,2.28
2022-11-20T00:54:31.743Z,2.93
2022-11-20T00:55:33.573Z,2.03
2022-11-20T00:56:35.403Z,3.33
2022-11-20T00:57:37.238Z,2.25
2022-11-20T00:58:41.061Z,3.40
2022-11-20T00:59:42.814Z,2.70
2022-11-20T01:00:44.919Z,2.47
2022-11-20T01:01:46.704Z,3.92
2022-11-20T01:02:48.429Z,2.90
2022-11-20T01:03:51.896Z,2.78
2022-11-20T01:04:53.651Z,2.30
2022-11-20T01:05:55.403Z,2.55
2022-11-20T01:06:57.429Z,2.90
2022-11-20T01:07:59.301Z,3.50
2022-11-20T01:09:05.486Z,2.33
2022-11-20T01:10:07.854Z,2.67
2022-11-20T01:11:12.717Z,3.97
2022-11-20T01:12:14.457Z,3.33
2022-11-20T01:13:34.911Z,2.70
2022-11-20T01:14:36.774Z,2.17
2022-11-20T01:15:38.602Z,5.30
2022-11-20T01:16:47.807Z,2.50
2022-11-20T01:17:49.717Z,3.80
2022-11-20T01:18:55.554Z,3.70
2022-11-20T01:19:57.300Z,2.55
2022-11-20T01:21:04.569Z,2.40
2022-11-20T01:22:06.391Z,2.55
2022-11-20T01:23:08.257Z,3.15
2022-11-20T01:24:13.765Z,3.78
2022-11-20T01:25:15.806Z,2.30
2022-11-20T01:26:22.686Z,2.87
2022-11-20T01:27:24.427Z,4.07
2022-11-20T01:28:26.131Z,2.80
2022-11-20T01:29:28.030Z,1.92
2022-11-20T01:30:29.809Z,3.50
2022-11-20T01:31:35.619Z,2.40
2022-11-20T01:32:37.444Z,2.67
2022-11-20T01:33:40.172Z,3.10
2022-11-20T01:34:41.894Z,2.40
2022-11-20T01:35:43.685Z,3.67
2022-11-20T01:36:46.428Z,3.40
2022-11-20T01:37:48.154Z,3.90
2022-11-20T01:38:54.102Z,3.38
2022-11-20T01:39:55.838Z,3.38
2022-11-20T01:40:57.736Z,3.88
2022-11-20T01:42:17.965Z,2.33
2022-11-20T01:43:23.745Z,2.85
2022-11-20T01:44:44.183Z,3.83
2022-11-20T01:45:58.836Z,2.20
2022-11-20T01:47:04.630Z,3.38
2022-11-20T01:48:06.843Z,3.10
2022-11-20T01:49:15.277Z,2.67
2022-11-20T01:50:35.184Z,2.75
2022-11-20T01:51:46.542Z,3.97
2022-11-20T01:52:55.743Z,3.38
2022-11-20T01:54:00.760Z,2.60
2022-11-20T01:55:09.683Z,2.75
2022-11-20T01:56:14.562Z,2.53
2022-11-20T01:57:18.375Z,3.00
2022-11-20T01:58:30.802Z,2.85
2022-11-20T01:59:32.630Z,2.30
2022-11-20T02:00:34.414Z,2.72
2022-11-20T02:01:36.669Z,2.33
2022-11-20T02:02:40.578Z,2.70
2022-11-20T02:03:44.664Z,2.45
2022-11-20T02:04:47.516Z,3.00
2022-11-20T02:06:12.279Z,2.20
2022-11-20T02:07:15.586Z,2.40
2022-11-20T02:08:18.550Z,2.28
2022-11-20T02:09:20.750Z,3.38
2022-11-20T02:10:22.838Z,2.50
2022-11-20T02:11:24.768Z,3.78
2022-11-20T02:12:45.414Z,2.70
2022-11-20T02:13:48.915Z,2.72
2022-11-20T02:14:50.838Z,2.90
2022-11-20T02:15:53.285Z,3.13
2022-11-20T02:16:56.463Z,2.25
2022-11-20T02:17:58.526Z,3.30
2022-11-20T02:19:04.815Z,4.15
2022-11-20T02:20:07.722Z,2.63
2022-11-20T02:21:15.078Z,2.50
2022-11-20T02:22:38.490Z,3.55
2022-11-20T02:23:59.001Z,2.38
2022-11-20T02:25:03.523Z,2.78
2022-11-20T02:26:09.331Z,4.05
2022-11-20T02:27:13.616Z,2.43
2022-11-20T02:28:17.132Z,3.33
2022-11-20T02:29:25.877Z,3.83
2022-11-20T02:30:27.572Z,2.53
2022-11-20T02:31:29.354Z,4.13
2022-11-20T02:32:32.475Z,2.90
2022-11-20T02:33:34.283Z,2.72
2022-11-20T02:34:36.015Z,3.55
2022-11-20T02:35:42.540Z,4.78
2022-11-20T02:36:46.045Z,2.13
2022-11-20T02:37:51.287Z,2.83
2022-11-20T02:38:53.242Z,2.20
2022-11-20T02:39:54.928Z,3.13
2022-11-20T02:40:56.711Z,4.05
2022-11-20T02:41:58.505Z,2.80
2022-11-20T02:43:00.250Z,3.30
2022-11-20T02:44:02.345Z,2.80
2022-11-20T02:45:05.615Z,3.53
2022-11-20T02:46:09.196Z,3.03
2022-11-20T02:47:11.260Z,3.00
2022-11-20T02:48:13.122Z,3.27
2022-11-20T02:49:15.046Z,3.03
2022-11-20T02:50:16.934Z,3.65
2022-11-20T02:51:18.652Z,3.03
2022-11-20T02:52:20.429Z,3.85
2022-11-20T02:53:22.139Z,3.17
2022-11-20T02:54:24.908Z,3.65
2022-11-20T02:55:26.662Z,3.53
2022-11-20T02:56:29.165Z,3.20
2022-11-20T02:57:31.126Z,4.00
2022-11-20T02:58:33.466Z,2.10
2022-11-20T02:59:36.135Z,3.47
2022-11-20T03:00:38.050Z,3.13
2022-11-20T03:01:40.902Z,2.80
2022-11-20T03:02:43.082Z,3.10
2022-11-20T03:03:44.844Z,2.23
2022-11-20T03:04:46.563Z,2.30
2022-11-20T03:05:48.324Z,3.10
2022-11-20T03:06:50.203Z,2.88
2022-11-20T03:07:51.942Z,3.15
2022-11-20T03:08:53.704Z,2.67
2022-11-20T03:09:55.598Z,3.08
2022-11-20T03:10:57.412Z,2.35
2022-11-20T03:11:59.143Z,2.58
2022-11-20T03:13:00.951Z,2.53
2022-11-20T03:14:04.417Z,2.43
2022-11-20T03:15:06.660Z,3.10
2022-11-20T03:16:17.266Z,3.00
2022-11-20T03:17:19.040Z,2.83
2022-11-20T03:18:20.827Z,2.83
2022-11-20T03:19:23.016Z,2.20
2022-11-20T03:20:25.181Z,2.22
2022-11-20T03:21:27.277Z,3.40
2022-11-20T03:22:31.252Z,4.07
2022-11-20T03:23:35.033Z,3.70
2022-11-20T03:24:37.185Z,4.13
2022-11-20T03:25:40.057Z,2.58
2022-11-20T03:26:43.108Z,3.13
2022-11-20T03:27:45.022Z,3.28
2022-11-20T03:28:52.235Z,3.70
2022-11-20T03:29:53.972Z,3.10
2022-11-20T03:30:55.735Z,2.50
2022-11-20T03:31:57.509Z,3.97
2022-11-20T03:32:59.302Z,3.25
2022-11-20T03:34:01.872Z,2.72
2022-11-20T03:35:03.989Z,3.63
2022-11-20T03:36:08.165Z,2.40
2022-11-20T03:37:09.969Z,3.10
2022-11-20T03:38:11.852Z,2.55
2022-11-20T03:39:13.695Z,3.20
2022-11-20T03:40:15.866Z,3.20
2022-11-20T03:41:24.244Z,2.22
2022-11-20T03:42:44.498Z,3.13
2022-11-20T03:44:01.707Z,2.17
2022-11-20T03:45:04.095Z,3.28
2022-11-20T03:46:06.971Z,4.03
2022-11-20T03:47:08.735Z,2.17
2022-11-20T03:48:10.507Z,3.42
2022-11-20T03:49:12.256Z,2.15
2022-11-20T03:50:14.992Z,2.53
2022-11-20T03:51:25.037Z,3.10
2022-11-20T03:52:26.988Z,1.75
2022-11-20T03:53:28.748Z,2.90
2022-11-20T03:54:30.528Z,4.35
2022-11-20T03:55:32.282Z,3.75
2022-11-20T03:56:37.494Z,2.20
2022-11-20T03:57:39.209Z,3.05
2022-11-20T03:58:42.124Z,3.25
2022-11-20T03:59:43.909Z,2.85
2022-11-20T04:00:45.652Z,3.03
2022-11-20T04:01:49.579Z,2.77
2022-11-20T04:02:51.704Z,3.05
2022-11-20T04:03:55.586Z,3.42
2022-11-20T04:04:57.358Z,2.95
2022-11-20T04:06:07.297Z,4.28
2022-11-20T04:07:09.495Z,3.40
2022-11-20T04:08:11.556Z,2.72
2022-11-20T04:09:14.140Z,2.95
2022-11-20T04:10:16.002Z,2.15
2022-11-20T04:11:20.564Z,2.90
2022-11-20T04:12:22.363Z,2.83
2022-11-20T04:13:24.495Z,3.30
2022-11-20T04:14:26.358Z,2.45
2022-11-20T04:15:28.756Z,3.35
2022-11-20T04:16:32.558Z,4.25
2022-11-20T04:17:34.312Z,2.30
2022-11-20T04:18:36.461Z,4.00
2022-11-20T04:19:38.333Z,3.42
2022-11-20T04:20:40.208Z,2.83
2022-11-20T04:21:42.779Z,3.70
2022-11-20T04:22:44.588Z,2.20
2022-11-20T04:23:46.535Z,2.78
2022-11-20T04:24:48.335Z,3.20
2022-11-20T04:25:50.287Z,2.10
2022-11-20T04:26:52.076Z,4.47
2022-11-20T04:27:53.903Z,3.07
2022-11-20T04:28:56.564Z,4.13
2022-11-20T04:29:58.412Z,3.45
2022-11-20T04:31:08.629Z,3.78
2022-11-20T04:32:10.770Z,3.85
2022-11-20T04:33:13.652Z,3.13
2022-11-20T04:34:15.454Z,3.33
2022-11-20T04:35:17.348Z,4.57
2022-11-20T04:36:25.406Z,2.60
2022-11-20T04:37:27.285Z,3.75
2022-11-20T04:38:29.241Z,2.17
2022-11-20T04:39:30.955Z,3.85
2022-11-20T04:40:32.733Z,2.33
2022-11-20T04:41:36.774Z,2.83
2022-11-20T04:42:38.498Z,3.47
2022-11-20T04:43:40.237Z,3.27
2022-11-20T04:44:42.034Z,2.72
2022-11-20T04:45:43.833Z,3.20
2022-11-20T04:46:45.561Z,2.67
2022-11-20T04:47:47.383Z,3.75
2022-11-20T04:48:49.108Z,2.67
2022-11-20T04:49:50.914Z,2.45
2022-11-20T04:50:53.362Z,2.88
2022-11-20T04:51:55.311Z,2.42
2022-11-20T04:52:57.088Z,2.85
2022-11-20T04:53:59.444Z,3.00
2022-11-20T04:55:01.219Z,2.55
2022-11-20T04:56:06.068Z,2.78
2022-11-20T04:57:11.430Z,3.47
2022-11-20T04:58:19.036Z,3.75
2022-11-20T04:59:21.332Z,3.07
2022-11-20T05:00:23.849Z,3.00
2022-11-20T05:01:26.610Z,4.38
2022-11-20T05:02:28.443Z,3.53
2022-11-20T05:03:30.694Z,3.83
2022-11-20T05:04:32.567Z,2.13
2022-11-20T05:05:37.484Z,2.45
2022-11-20T05:06:39.283Z,3.58
2022-11-20T05:07:41.204Z,2.90
2022-11-20T05:08:43.232Z,2.92
2022-11-20T05:09:45.189Z,3.13
2022-11-20T05:10:47.686Z,2.85
2022-11-20T05:11:51.639Z,2.38
2022-11-20T05:12:54.062Z,2.42
2022-11-20T05:13:56.483Z,3.05
2022-11-20T05:14:58.212Z,2.63
2022-11-20T05:16:11.730Z,2.03
2022-11-20T05:17:13.754Z,3.60
2022-11-20T05:18:15.584Z,2.45
2022-11-20T05:19:17.378Z,3.45
2022-11-20T05:20:22.032Z,3.13
2022-11-20T05:21:24.203Z,2.70
2022-11-20T05:22:25.998Z,3.95
2022-11-20T05:23:28.790Z,2.05
2022-11-20T05:24:31.079Z,3.67
2022-11-20T05:25:32.913Z,3.20
2022-11-20T05:26:36.637Z,2.55
2022-11-20T05:27:39.184Z,3.10
2022-11-20T05:28:41.037Z,2.25
2022-11-20T05:29:42.804Z,3.70
2022-11-20T05:30:44.662Z,3.23
2022-11-20T05:31:46.398Z,1.98
2022-11-20T05:32:48.129Z,3.92
2022-11-20T05:33:50.093Z,2.72
2022-11-20T05:34:52.514Z,2.35
2022-11-20T05:35:58.707Z,3.40
2022-11-20T05:37:00.585Z,2.10
2022-11-20T05:38:02.379Z,2.45
2022-11-20T05:39:04.423Z,3.00
2022-11-20T05:40:07.275Z,2.47
2022-11-20T05:41:15.058Z,2.33
2022-11-20T05:42:32.621Z,3.85
2022-11-20T05:43:37.166Z,3.13
2022-11-20T05:44:38.970Z,2.55
2022-11-20T05:45:40.708Z,3.70
2022-11-20T05:46:42.564Z,2.47
2022-11-20T05:47:44.345Z,2.55
2022-11-20T05:48:47.228Z,2.47
2022-11-20T05:49:48.996Z,2.92
2022-11-20T05:50:50.742Z,3.75
2022-11-20T05:51:52.750Z,2.40
2022-11-20T05:52:54.617Z,3.65
2022-11-20T05:53:59.988Z,3.03
2022-11-20T05:55:02.959Z,3.00
2022-11-20T05:56:11.561Z,4.05
2022-11-20T05:57:13.319Z,2.50
2022-11-20T05:58:15.161Z,1.88
2022-11-20T05:59:17.090Z,4.00
2022-11-20T06:00:19.156Z,3.17
2022-11-20T06:01:23.875Z,2.65
2022-11-20T06:02:25.794Z,2.43
2022-11-20T06:03:27.713Z,3.50
2022-11-20T06:04:29.747Z,3.10
2022-11-20T06:05:31.716Z,2.80
2022-11-20T06:06:33.562Z,3.67
2022-11-20T06:07:35.355Z,3.10
2022-11-20T06:08:37.263Z,3.13
2022-11-20T06:09:40.666Z,3.83
2022-11-20T06:10:42.455Z,2.63
2022-11-20T06:11:44.215Z,2.90
2022-11-20T06:12:45.972Z,2.77
2022-11-20T06:13:48.628Z,2.17
2022-11-20T06:14:50.484Z,3.83
2022-11-20T06:15:53.876Z,2.53
2022-11-20T06:16:55.912Z,3.78
2022-11-20T06:17:57.813Z,2.90
2022-11-20T06:18:59.579Z,5.10
2022-11-20T06:20:02.986Z,2.92
2022-11-20T06:21:14.876Z,2.92
2022-11-20T06:22:16.602Z,4.00
2022-11-20T06:23:18.428Z,2.63
2022-11-20T06:24:20.214Z,2.38
2022-11-20T06:25:22.031Z,2.95
2022-11-20T06:26:26.569Z,3.70
2022-11-20T06:27:28.380Z,2.83
2022-11-20T06:28:30.311Z,2.70
2022-11-20T06:29:34.018Z,2.40
2022-11-20T06:30:36.974Z,3.58
2022-11-20T06:31:38.899Z,2.50
2022-11-20T06:32:40.669Z,3.17
2022-11-20T06:33:43.546Z,2.53
2022-11-20T06:34:45.289Z,2.65
2022-11-20T06:35:47.175Z,3.10
2022-11-20T06:36:48.944Z,2.92
2022-11-20T06:37:50.701Z,2.88
2022-11-20T06:38:52.543Z,3.13
2022-11-20T06:39:54.251Z,3.97
2022-11-20T06:40:56.150Z,2.95
2022-11-20T06:41:59.178Z,3.08
2022-11-20T06:43:01.173Z,2.88
2022-11-20T06:44:05.499Z,1.37
2022-11-20T06:45:08.025Z,2.85
2022-11-20T06:46:11.832Z,2.78
2022-11-20T06:47:14.008Z,1.92
2022-11-20T06:48:16.560Z,3.28
2022-11-20T06:49:18.819Z,3.40
2022-11-20T06:50:20.765Z,4.55
2022-11-20T06:51:22.598Z,3.50
2022-11-20T06:52:24.362Z,3.35
2022-11-20T06:53:26.235Z,3.22
2022-11-20T06:54:28.053Z,1.90
2022-11-20T06:55:30.031Z,2.78
2022-11-20T06:56:31.862Z,2.80
2022-11-20T06:57:33.769Z,2.90
2022-11-20T06:58:36.850Z,2.67
2022-11-20T06:59:38.797Z,3.13
2022-11-20T07:00:41.324Z,2.30
2022-11-20T07:01:43.084Z,4.15
2022-11-20T07:02:44.983Z,4.32
2022-11-20T07:03:53.981Z,3.63
2022-11-20T07:04:56.308Z,2.20
2022-11-20T07:05:59.481Z,2.85
2022-11-20T07:07:01.500Z,2.88
2022-11-20T07:08:04.363Z,2.58
2022-11-20T07:09:11.370Z,2.97
2022-11-20T07:10:14.548Z,2.50
2022-11-20T07:11:16.433Z,3.22
2022-11-20T07:12:18.413Z,6.38
2022-11-20T07:13:20.218Z,2.85
2022-11-20T07:14:21.985Z,3.00
2022-11-20T07:15:25.306Z,3.03
2022-11-20T07:16:27.139Z,3.90
2022-11-20T07:17:29.000Z,3.10
2022-11-20T07:18:31.048Z,3.00
2022-11-20T07:19:32.967Z,3.33
2022-11-20T07:20:34.716Z,3.10
2022-11-20T07:21:36.496Z,3.53
2022-11-20T07:22:38.595Z,5.30
2022-11-20T07:23:40.385Z,4.47
2022-11-20T07:24:46.020Z,4.05
2022-11-20T07:25:48.284Z,3.60
2022-11-20T07:26:50.163Z,3.97
2022-11-20T07:27:52.336Z,3.22
2022-11-20T07:28:54.089Z,3.20
2022-11-20T07:29:56.303Z,3.60
2022-11-20T07:30:57.997Z,2.50
2022-11-20T07:32:00.457Z,4.30
2022-11-20T07:33:02.303Z,3.33
2022-11-20T07:34:04.116Z,3.22
2022-11-20T07:35:06.379Z,4.15
2022-11-20T07:36:08.501Z,2.73
2022-11-20T07:37:10.675Z,3.75
2022-11-20T07:38:12.753Z,4.53
2022-11-20T07:39:14.658Z,5.00
2022-11-20T07:40:17.529Z,4.50
2022-11-20T07:41:19.389Z,3.93
2022-11-20T07:42:21.331Z,2.75
2022-11-20T07:43:26.766Z,3.70
2022-11-20T07:44:28.595Z,3.88
2022-11-20T07:45:30.398Z,4.60
2022-11-20T07:46:32.556Z,3.60
2022-11-20T07:47:37.703Z,3.30
2022-11-20T07:48:39.645Z,4.95
2022-11-20T07:49:41.520Z,3.17
2022-11-20T07:50:43.280Z,3.60
2022-11-20T07:51:47.898Z,2.53
2022-11-20T07:52:51.971Z,3.17
2022-11-20T07:53:55.121Z,3.05
2022-11-20T07:54:56.869Z,3.42
2022-11-20T07:56:02.663Z,2.75
2022-11-20T07:57:04.557Z,3.07
2022-11-20T07:58:06.509Z,3.30
2022-11-20T07:59:08.279Z,4.25
2022-11-20T08:00:12.515Z,2.78
2022-11-20T08:01:14.635Z,3.35
2022-11-20T08:02:16.396Z,3.90
2022-11-20T08:03:24.076Z,5.00
2022-11-20T08:04:26.243Z,3.67
2022-11-20T08:05:28.019Z,3.88
2022-11-20T08:06:29.958Z,3.90
2022-11-20T08:07:40.268Z,3.10
2022-11-20T08:08:42.956Z,3.72
2022-11-20T08:09:45.074Z,4.05
2022-11-20T08:10:47.059Z,3.08
2022-11-20T08:12:07.552Z,3.33
2022-11-20T08:13:28.671Z,3.30
2022-11-20T08:14:30.855Z,2.83
2022-11-20T08:15:33.438Z,3.95
2022-11-20T08:16:35.207Z,3.15
2022-11-20T08:17:37.207Z,3.83
2022-11-20T08:18:38.946Z,4.13
2022-11-20T08:19:40.953Z,4.28
2022-11-20T08:20:42.955Z,3.72
2022-11-20T08:21:45.412Z,4.43
2022-11-20T08:22:47.319Z,2.72
2022-11-20T08:23:49.147Z,3.40
2022-11-20T08:24:51.092Z,3.80
2022-11-20T08:25:53.147Z,5.20
2022-11-20T08:26:55.089Z,3.70
2022-11-20T08:28:04.946Z,3.47
2022-11-20T08:29:11.060Z,3.20
2022-11-20T08:30:13.942Z,3.38
2022-11-20T08:31:17.323Z,3.95
2022-11-20T08:32:19.443Z,2.67
2022-11-20T08:33:21.438Z,3.97
2022-11-20T08:34:23.279Z,3.93
2022-11-20T08:35:25.163Z,3.47
2022-11-20T08:36:27.132Z,4.13
2022-11-20T08:37:28.948Z,3.70
2022-11-20T08:38:31.447Z,3.50
2022-11-20T08:39:33.265Z,2.90
2022-11-20T08:40:35.164Z,2.85
2022-11-20T08:41:37.840Z,4.10
2022-11-20T08:42:50.992Z,3.10
2022-11-20T08:43:55.510Z,4.05
2022-11-20T08:44:57.349Z,3.87
2022-11-20T08:45:59.249Z,3.15
2022-11-20T08:47:01.784Z,3.30
2022-11-20T08:48:04.727Z,5.22
2022-11-20T08:49:07.743Z,4.18
2022-11-20T08:50:11.331Z,3.10
2022-11-20T08:51:13.934Z,3.42
2022-11-20T08:52:15.744Z,3.75
2022-11-20T08:53:17.520Z,4.18
2022-11-20T08:54:22.210Z,4.18
2022-11-20T08:55:24.088Z,3.30
2022-11-20T08:56:25.982Z,4.00
2022-11-20T08:57:27.887Z,3.70
2022-11-20T08:58:31.101Z,5.00
2022-11-20T08:59:58.695Z,3.33
2022-11-20T09:00:55.138Z,3.37
2022-11-20T09:01:56.989Z,3.60
2022-11-20T09:02:59.709Z,3.55
2022-11-20T09:04:01.707Z,3.10
2022-11-20T09:05:04.043Z,3.83
2022-11-20T09:06:08.159Z,6.50
2022-11-20T09:07:10.063Z,4.25
2022-11-20T09:08:12.100Z,4.10
2022-11-20T09:09:15.506Z,3.95
2022-11-20T09:10:23.992Z,3.80
2022-11-20T09:11:26.522Z,2.93
2022-11-20T09:12:28.564Z,4.05
2022-11-20T09:13:31.095Z,4.65
2022-11-20T09:14:32.901Z,3.83
2022-11-20T09:15:35.120Z,4.90
2022-11-20T09:16:37.165Z,3.93
2022-11-20T09:17:39.050Z,3.60
2022-11-20T09:18:40.916Z,3.83
2022-11-20T09:19:43.132Z,3.40
2022-11-20T09:20:45.277Z,4.20
2022-11-20T09:21:47.249Z,3.20
2022-11-20T09:22:49.651Z,4.35
2022-11-20T09:23:51.512Z,2.47
2022-11-20T09:24:53.279Z,3.97
2022-11-20T09:26:00.552Z,3.95
2022-11-20T09:27:04.422Z,3.80
2022-11-20T09:28:06.240Z,3.97
2022-11-20T09:29:08.089Z,4.43
2022-11-20T09:30:10.336Z,3.13
2022-11-20T09:31:30.198Z,5.10
2022-11-20T09:32:32.350Z,4.50
2022-11-20T09:33:34.414Z,4.30
2022-11-20T09:34:36.291Z,3.90
2022-11-20T09:35:38.384Z,4.68
2022-11-20T09:36:40.232Z,4.45
2022-11-20T09:37:42.156Z,3.53
2022-11-20T09:38:44.019Z,4.18
2022-11-20T09:39:46.260Z,4.47
2022-11-20T09:41:06.490Z,4.38
2022-11-20T09:42:35.816Z,3.20
2022-11-20T09:43:56.250Z,4.40
2022-11-20T09:45:19.087Z,2.85
2022-11-20T09:46:37.898Z,4.28
2022-11-20T09:48:00.742Z,6.05
2022-11-20T09:49:29.006Z,3.83
2022-11-20T09:50:51.935Z,4.60
2022-11-20T09:52:00.850Z,4.30
2022-11-20T09:53:16.881Z,3.35
2022-11-20T09:54:23.153Z,3.05
2022-11-20T09:55:27.273Z,4.75
2022-11-20T09:56:30.468Z,3.73
2022-11-20T09:57:41.590Z,4.20
2022-11-20T09:58:46.810Z,3.53
2022-11-20T09:59:55.385Z,3.83
2022-11-20T10:01:06.420Z,3.95
2022-11-20T10:02:22.327Z,3.17
2022-11-20T10:03:49.643Z,3.58
2022-11-20T10:05:04.798Z,3.78
2022-11-20T10:06:13.284Z,3.30
2022-11-20T10:07:45.146Z,4.00
2022-11-20T10:09:02.627Z,3.50
2022-11-20T10:10:05.165Z,3.33
2022-11-20T10:11:17.936Z,5.07
2022-11-20T10:13:14.444Z,4.97
2022-11-20T10:14:24.686Z,4.10
2022-11-20T10:15:43.342Z,4.80
2022-11-20T10:16:57.518Z,4.05
2022-11-20T10:18:24.834Z,4.53
2022-11-20T10:19:49.793Z,4.40
2022-11-20T10:20:57.615Z,3.55
2022-11-20T10:22:24.848Z,4.33
2022-11-20T10:23:41.834Z,3.53
2022-11-20T10:24:53.677Z,4.35
2022-11-20T10:26:18.785Z,3.72
2022-11-20T10:27:32.923Z,4.47
2022-11-20T10:29:03.445Z,4.17
2022-11-20T10:30:17.236Z,3.03
2022-11-20T10:31:37.255Z,3.47
2022-11-20T10:32:42.086Z,3.53
2022-11-20T10:34:11.204Z,3.83
2022-11-20T10:35:15.109Z,4.43
2022-11-20T10:36:24.162Z,4.00
2022-11-20T10:37:27.920Z,4.57
2022-11-20T10:38:44.434Z,4.00
2022-11-20T10:40:01.204Z,5.57
2022-11-20T10:41:25.901Z,4.80
2022-11-20T10:42:37.212Z,4.18
2022-11-20T10:43:39.159Z,4.18
2022-11-20T10:45:06.532Z,3.05
2022-11-20T10:46:21.192Z,4.60
2022-11-20T10:47:23.544Z,3.93
2022-11-20T10:48:27.331Z,4.72
2022-11-20T10:49:29.830Z,5.40
2022-11-20T10:50:32.081Z,5.22
2022-11-20T10:51:54.589Z,6.15
2022-11-20T10:53:25.291Z,5.53
2022-11-20T10:54:33.221Z,3.85
2022-11-20T10:55:57.023Z,4.45
2022-11-20T10:57:26.547Z,3.78
2022-11-20T10:58:56.810Z,4.93
2022-11-20T11:00:13.288Z,4.07
2022-11-20T11:01:17.782Z,3.97
2022-11-20T11:02:35.139Z,4.82
2022-11-20T11:03:46.043Z,4.30
2022-11-20T11:04:50.855Z,4.45
2022-11-20T11:06:11.956Z,4.03
2022-11-20T11:07:23.351Z,4.18
2022-11-20T11:08:42.606Z,4.88
2022-11-20T11:09:48.793Z,5.40
2022-11-20T11:10:58.223Z,4.95
2022-11-20T11:12:07.307Z,3.27
2022-11-20T11:13:21.027Z,5.07
2022-11-20T11:14:25.633Z,4.68
2022-11-20T11:15:31.670Z,5.18
2022-11-20T11:16:33.898Z,5.20
2022-11-20T11:17:35.877Z,6.70
2022-11-20T11:18:37.802Z,5.88
2022-11-20T11:19:39.706Z,6.72
2022-11-20T11:20:52.205Z,4.75
2022-11-20T11:21:57.602Z,4.55
2022-11-20T11:23:00.877Z,5.47
2022-11-20T11:24:34.690Z,5.35
2022-11-20T11:25:31.719Z,5.95
2022-11-20T11:26:33.550Z,5.07
2022-11-20T11:27:35.911Z,6.32
2022-11-20T11:28:38.033Z,5.87
2022-11-20T11:29:40.042Z,4.80
2022-11-20T11:30:43.979Z,6.45
2022-11-20T11:31:46.067Z,4.85
2022-11-20T11:32:48.663Z,5.53
2022-11-20T11:33:51.012Z,5.67
2022-11-20T11:35:16.345Z,5.70
2022-11-20T11:36:22.996Z,4.78
2022-11-20T11:37:27.770Z,4.95
2022-11-20T11:38:42.155Z,6.18
2022-11-20T11:39:45.884Z,4.77
2022-11-20T11:40:48.036Z,5.05
2022-11-20T11:41:50.312Z,5.53
2022-11-20T11:43:01.112Z,5.38
2022-11-20T11:44:48.729Z,3.95
2022-11-20T11:45:55.884Z,5.77
2022-11-20T11:46:58.995Z,4.85
2022-11-20T11:48:04.583Z,5.10
2022-11-20T11:49:06.445Z,5.22
2022-11-20T11:50:11.258Z,6.53
2022-11-20T11:51:21.056Z,7.57
2022-11-20T11:52:25.274Z,5.45
2022-11-20T11:53:28.601Z,9.63
2022-11-20T11:54:56.757Z,6.22
2022-11-20T11:56:10.966Z,5.28
2022-11-20T11:57:22.206Z,4.17
2022-11-20T11:58:47.430Z,5.72
2022-11-20T11:59:58.666Z,5.20
2022-11-20T12:01:09.402Z,5.45
2022-11-20T12:02:26.728Z,5.50
2022-11-20T12:03:36.928Z,4.90
2022-11-20T12:04:47.348Z,4.07
2022-11-20T12:06:08.564Z,5.57
2022-11-20T12:07:46.473Z,5.25
2022-11-20T12:09:00.364Z,7.68
2022-11-20T12:10:04.182Z,5.43
2022-11-20T12:11:20.209Z,5.78
2022-11-20T12:12:31.651Z,6.32
2022-11-20T12:14:05.398Z,6.53
2022-11-20T12:15:13.167Z,5.10
2022-11-20T12:16:18.656Z,5.70
2022-11-20T12:17:20.574Z,5.80
2022-11-20T12:18:23.696Z,5.65
2022-11-20T12:19:25.958Z,4.63
2022-11-20T12:20:36.340Z,6.85
2022-11-20T12:22:05.152Z,5.43
2022-11-20T12:23:26.711Z,6.40
2022-11-20T12:24:53.678Z,5.72
2022-11-20T12:25:59.768Z,4.70
2022-11-20T12:27:31.715Z,5.85
2022-11-20T12:28:50.081Z,6.97
2022-11-20T12:30:13.479Z,5.95
2022-11-20T12:31:33.182Z,5.32
2022-11-20T12:33:05.885Z,7.25
2022-11-20T12:34:42.580Z,6.15
2022-11-20T12:36:08.972Z,5.13
2022-11-20T12:37:20.627Z,5.05
2022-11-20T12:38:59.772Z,6.15
2022-11-20T12:40:20.410Z,4.22
2022-11-20T12:42:20.157Z,6.85
2022-11-20T12:44:07.691Z,4.80
2022-11-20T12:45:36.728Z,5.15
2022-11-20T12:47:09.652Z,6.95
2022-11-20T12:48:46.037Z,4.63
2022-11-20T12:49:57.266Z,4.93
2022-11-20T12:51:25.715Z,5.63
2022-11-20T12:52:59.490Z,6.20
2022-11-20T12:54:13.497Z,5.68
2022-11-20T12:55:18.819Z,5.10
2022-11-20T12:56:39.580Z,6.68
2022-11-20T12:57:50.332Z,5.77
2022-11-20T12:59:16.320Z,4.63
2022-11-20T13:00:23.055Z,6.30
2022-11-20T13:01:59.536Z,6.90
2022-11-20T13:03:10.446Z,5.40
2022-11-20T13:04:37.098Z,4.60
2022-11-20T13:05:45.697Z,7.18
2022-11-20T13:06:48.629Z,5.38
2022-11-20T13:07:54.130Z,5.32
2022-11-20T13:08:57.434Z,7.32
2022-11-20T13:10:01.163Z,6.73
2022-11-20T13:11:14.932Z,7.97
2022-11-20T13:12:30.831Z,7.55
2022-11-20T13:13:57.830Z,7.75
2022-11-20T13:15:39.889Z,5.93
2022-11-20T13:16:54.876Z,7.07
2022-11-20T13:18:02.015Z,8.73
2022-11-20T13:19:05.896Z,8.88
2022-11-20T13:20:15.092Z,8.00
2022-11-20T13:21:19.764Z,9.52
2022-11-20T13:22:43.564Z,8.80
2022-11-20T13:23:45.737Z,9.98
2022-11-20T13:24:52.793Z,9.05
2022-11-20T13:26:22.005Z,8.35
2022-11-20T13:27:24.844Z,7.68
2022-11-20T13:28:31.185Z,8.33
2022-11-20T13:29:35.299Z,8.15
2022-11-20T13:30:49.615Z,8.38
2022-11-20T13:31:51.407Z,6.18
2022-11-20T13:33:09.423Z,12.65
2022-11-20T13:34:23.894Z,8.13
2022-11-20T13:35:34.635Z,7.32
2022-11-20T13:36:51.252Z,7.72
2022-11-20T13:38:06.472Z,6.18
2022-11-20T13:39:10.186Z,6.43
2022-11-20T13:40:12.097Z,5.57
2022-11-20T13:41:33.277Z,6.32
2022-11-20T13:42:43.115Z,6.50
2022-11-20T13:43:47.844Z,5.53
2022-11-20T13:44:55.029Z,6.57
2022-11-20T13:45:59.747Z,5.80
2022-11-20T13:47:02.287Z,6.75
2022-11-20T13:48:20.185Z,7.43
2022-11-20T13:49:30.873Z,6.25
2022-11-20T13:50:50.365Z,7.15
2022-11-20T13:51:59.197Z,5.80
2022-11-20T13:53:27.893Z,6.68
2022-11-20T13:54:29.895Z,5.55
2022-11-20T13:56:01.090Z,7.70
2022-11-20T13:57:39.421Z,6.50
2022-11-20T13:58:44.630Z,5.70
2022-11-20T14:00:02.662Z,6.60
2022-11-20T14:01:18.690Z,5.45
2022-11-20T14:02:23.101Z,6.57
2022-11-20T14:04:59.550Z,7.80
2022-11-20T14:06:12.420Z,7.07
2022-11-20T14:07:20.078Z,7.30
2022-11-20T14:08:42.943Z,6.50
2022-11-20T14:09:54.465Z,8.18
2022-11-20T14:11:18.114Z,7.73
2022-11-20T14:12:28.438Z,7.18
2022-11-20T14:13:31.271Z,7.88
2022-11-20T14:14:37.012Z,7.20
2022-11-20T14:15:44.876Z,6.95
2022-11-20T14:16:48.305Z,7.17
2022-11-20T14:17:50.286Z,7.35
2022-11-20T14:18:52.413Z,7.43
2022-11-20T14:19:55.672Z,6.57
2022-11-20T14:21:00.902Z,6.32
2022-11-20T14:22:18.903Z,7.00
2022-11-20T14:23:30.235Z,6.53
2022-11-20T14:24:32.413Z,8.65
2022-11-20T14:25:34.154Z,6.88
2022-11-20T14:26:37.397Z,9.55
2022-11-20T14:27:42.405Z,7.17
2022-11-20T14:28:48.755Z,7.07
2022-11-20T14:29:51.562Z,7.47
2022-11-20T14:30:53.646Z,7.00
2022-11-20T14:31:57.466Z,6.95
2022-11-20T14:33:04.154Z,7.50
2022-11-20T14:34:07.262Z,9.90
2022-11-20T14:35:13.869Z,9.93
2022-11-20T14:36:24.960Z,7.35
2022-11-20T14:37:29.827Z,8.68
2022-11-20T14:38:33.769Z,8.10
2022-11-20T14:39:37.663Z,15.50
2022-11-20T14:40:39.533Z,10.60
2022-11-20T14:41:52.419Z,26.55
2022-11-20T14:42:55.930Z,25.00
2022-11-20T14:43:59.733Z,22.73
2022-11-20T14:45:02.943Z,20.30
2022-11-20T14:46:08.168Z,21.95